createdAt,value
2022-08-26T00:00:27.519Z,23.40
2022-08-26T00:05:31.623Z,23.30
2022-08-26T00:10:35.664Z,23.30
2022-08-26T00:15:41.687Z,23.20
2022-08-26T00:20:45.545Z,23.20
2022-08-26T00:25:49.724Z,23.20
2022-08-26T00:30:55.431Z,23.20
2022-08-26T00:36:00.010Z,23.20
2022-08-26T00:41:05.308Z,23.20
2022-08-26T00:46:17.788Z,23.10
2022-08-26T00:51:29.597Z,23.10
2022-08-26T00:56:38.019Z,23.10
2022-08-26T01:01:45.934Z,23.10
2022-08-26T01:06:53.581Z,23.10
2022-08-26T01:12:00.410Z,23.10
2022-08-26T01:17:07.448Z,23.00
2022-08-26T01:22:18.360Z,23.00
2022-08-26T01:27:23.449Z,23.00
2022-08-26T01:32:28.390Z,22.90
2022-08-26T01:37:36.823Z,22.90
2022-08-26T01:42:44.555Z,22.90
2022-08-26T01:47:56.627Z,22.90
2022-08-26T01:53:05.167Z,22.80
2022-08-26T01:58:17.602Z,22.80
2022-08-26T02:03:23.590Z,22.80
2022-08-26T02:08:32.086Z,22.80
2022-08-26T02:13:42.831Z,22.80
2022-08-26T02:18:47.355Z,22.80
2022-08-26T02:23:52.086Z,22.80
2022-08-26T02:29:03.182Z,22.80
2022-08-26T02:34:11.884Z,22.70
2022-08-26T02:39:21.915Z,22.70
2022-08-26T02:44:28.793Z,22.60
2022-08-26T02:49:32.474Z,22.60
2022-08-26T02:54:36.624Z,22.60
2022-08-26T02:59:41.733Z,22.60
2022-08-26T03:04:57.984Z,22.60
2022-08-26T03:10:08.449Z,22.60
2022-08-26T03:15:17.479Z,22.50
2022-08-26T03:20:21.550Z,22.50
2022-08-26T03:25:26.341Z,22.50
2022-08-26T03:30:44.980Z,22.50
2022-08-26T03:35:50.613Z,22.50
2022-08-26T03:40:55.586Z,22.40
2022-08-26T03:46:00.809Z,22.40
2022-08-26T03:51:05.606Z,22.40
2022-08-26T03:56:10.728Z,22.40
2022-08-26T04:01:16.468Z,22.40
2022-08-26T04:06:20.211Z,22.30
2022-08-26T04:11:28.468Z,22.30
2022-08-26T04:16:36.365Z,22.30
2022-08-26T04:21:41.331Z,22.30
2022-08-26T04:26:45.346Z,22.30
2022-08-26T04:31:50.684Z,22.30
2022-08-26T04:36:59.567Z,22.20
2022-08-26T04:42:03.374Z,22.20
2022-08-26T04:47:08.492Z,22.20
2022-08-26T04:52:12.994Z,22.20
2022-08-26T04:57:16.750Z,22.20
2022-08-26T05:02:22.420Z,22.20
2022-08-26T05:07:26.682Z,22.10
2022-08-26T05:12:30.818Z,22.10
2022-08-26T05:17:35.834Z,22.10
2022-08-26T05:22:39.649Z,22.10
2022-08-26T05:27:44.524Z,22.10
2022-08-26T05:32:53.635Z,22.00
2022-08-26T05:37:59.314Z,22.10
2022-08-26T05:43:03.401Z,22.00
2022-08-26T05:48:09.802Z,22.00
2022-08-26T05:53:15.051Z,22.00
2022-08-26T05:58:22.769Z,22.00
2022-08-26T06:03:27.919Z,22.00
2022-08-26T06:08:31.638Z,22.00
2022-08-26T06:13:36.246Z,22.00
2022-08-26T06:18:43.882Z,22.00
2022-08-26T06:24:07.413Z,22.00
2022-08-26T06:29:11.265Z,22.00
2022-08-26T06:34:20.829Z,22.00
2022-08-26T06:39:24.542Z,22.00
2022-08-26T06:44:29.015Z,22.00
2022-08-26T06:49:34.298Z,22.10
2022-08-26T06:54:43.072Z,22.10
2022-08-26T06:59:48.096Z,22.10
2022-08-26T07:04:56.865Z,22.10
2022-08-26T07:10:00.922Z,22.10
2022-08-26T07:15:06.659Z,22.20
2022-08-26T07:20:13.350Z,22.20
2022-08-26T07:25:17.198Z,22.20
2022-08-26T07:30:23.508Z,22.20
2022-08-26T07:35:28.764Z,22.30
2022-08-26T07:40:34.038Z,22.30
2022-08-26T07:45:38.175Z,22.30
2022-08-26T07:50:50.006Z,22.30
2022-08-26T07:55:54.407Z,22.30
2022-08-26T08:00:58.221Z,22.30
2022-08-26T08:06:04.016Z,22.30
2022-08-26T08:11:08.048Z,22.30
2022-08-26T08:16:13.841Z,22.30
2022-08-26T08:21:22.010Z,22.30
2022-08-26T08:26:28.284Z,22.30
2022-08-26T08:36:59.372Z,22.20
2022-08-26T08:42:23.642Z,22.20
2022-08-26T08:47:33.906Z,22.20
2022-08-26T08:52:40.679Z,22.20
2022-08-26T08:57:56.464Z,22.20
2022-08-26T09:03:17.647Z,22.20
2022-08-26T09:08:28.340Z,22.30
2022-08-26T09:13:32.091Z,22.30
2022-08-26T09:18:50.283Z,22.40
2022-08-26T09:23:56.907Z,22.40
2022-08-26T09:29:02.952Z,22.40
2022-08-26T09:34:17.174Z,22.40
2022-08-26T09:39:37.494Z,22.40
2022-08-26T09:44:58.215Z,22.50
2022-08-26T09:50:09.594Z,22.50
2022-08-26T09:55:22.353Z,22.50
2022-08-26T10:00:30.697Z,22.50
2022-08-26T10:05:42.502Z,22.50
2022-08-26T10:10:47.999Z,22.60
2022-08-26T10:16:05.685Z,22.60
2022-08-26T10:21:15.416Z,22.70
2022-08-26T10:26:27.801Z,22.70
2022-08-26T10:31:43.660Z,22.70
2022-08-26T10:37:14.280Z,22.70
2022-08-26T10:42:25.470Z,22.70
2022-08-26T10:47:38.654Z,22.70
2022-08-26T10:52:56.846Z,22.80
2022-08-26T10:58:11.519Z,22.80
2022-08-26T11:03:32.122Z,22.90
2022-08-26T11:08:35.860Z,22.90
2022-08-26T11:14:04.400Z,22.90
2022-08-26T11:19:10.322Z,22.90
2022-08-26T11:25:00.514Z,22.90
2022-08-26T11:30:10.739Z,22.80
2022-08-26T11:35:47.951Z,22.80
2022-08-26T11:41:13.231Z,22.80
2022-08-26T11:46:26.255Z,22.80
2022-08-26T11:51:31.608Z,22.70
2022-08-26T11:56:37.288Z,22.70
2022-08-26T12:01:45.997Z,22.80
2022-08-26T12:06:53.299Z,22.80
2022-08-26T12:12:12.819Z,22.70
2022-08-26T12:17:19.389Z,22.70
2022-08-26T12:22:28.818Z,22.70
2022-08-26T12:27:35.430Z,22.70
2022-08-26T12:32:51.050Z,22.70
2022-08-26T12:38:02.161Z,22.70
2022-08-26T12:43:08.642Z,22.70
2022-08-26T12:48:20.914Z,22.70
2022-08-26T12:53:29.938Z,22.70
2022-08-26T12:58:36.285Z,22.70
2022-08-26T13:03:44.586Z,22.70
2022-08-26T13:08:49.436Z,22.70
2022-08-26T13:13:56.723Z,22.70
2022-08-26T13:19:05.634Z,22.70
2022-08-26T13:24:15.651Z,22.70
2022-08-26T13:29:20.153Z,22.70
2022-08-26T13:34:25.841Z,22.70
2022-08-26T13:39:30.339Z,22.70
2022-08-26T13:44:34.154Z,22.70
2022-08-26T13:49:39.411Z,22.70
2022-08-26T13:54:43.088Z,22.70
2022-08-26T13:59:47.207Z,22.70
2022-08-26T14:04:53.741Z,22.70
2022-08-26T14:09:57.817Z,22.70
2022-08-26T14:15:01.644Z,22.70
2022-08-26T14:20:08.993Z,22.70
2022-08-26T14:25:13.671Z,22.70
2022-08-26T14:30:18.385Z,22.70
2022-08-26T14:35:26.049Z,22.60
2022-08-26T14:40:32.045Z,22.60
2022-08-26T14:50:47.934Z,22.60
2022-08-26T14:55:51.692Z,22.60
2022-08-26T15:00:56.019Z,22.70
2022-08-26T15:06:01.134Z,22.70
2022-08-26T15:11:05.333Z,22.70
2022-08-26T15:16:09.017Z,22.70
2022-08-26T15:21:14.121Z,22.70
2022-08-26T15:26:18.535Z,22.70
2022-08-26T15:31:30.900Z,22.70
2022-08-26T15:36:37.724Z,22.80
2022-08-26T15:41:41.836Z,22.80
2022-08-26T15:46:46.178Z,22.80
2022-08-26T15:51:51.631Z,22.80
2022-08-26T15:56:55.891Z,22.70
2022-08-26T16:01:59.858Z,22.70
2022-08-26T16:07:05.728Z,22.80
2022-08-26T16:12:09.644Z,22.70
2022-08-26T16:17:13.514Z,22.70
2022-08-26T16:22:18.572Z,22.70
2022-08-26T16:27:23.673Z,22.70
2022-08-26T16:32:30.727Z,22.70
2022-08-26T16:37:38.937Z,22.70
2022-08-26T16:42:43.084Z,22.70
2022-08-26T16:47:47.358Z,22.60
2022-08-26T16:52:55.677Z,22.60
2022-08-26T16:57:59.528Z,22.60
2022-08-26T17:03:03.322Z,22.60
2022-08-26T17:08:08.683Z,22.60
2022-08-26T17:13:12.623Z,22.60
2022-08-26T17:18:30.799Z,22.60
2022-08-26T17:23:36.562Z,22.60
2022-08-26T17:28:40.827Z,22.60
2022-08-26T17:33:47.727Z,22.50
2022-08-26T17:38:55.564Z,22.50
2022-08-26T17:43:59.244Z,22.40
2022-08-26T17:49:03.048Z,22.40
2022-08-26T17:54:08.103Z,22.40
2022-08-26T17:59:11.848Z,22.40
2022-08-26T18:04:16.762Z,22.30
2022-08-26T18:09:21.763Z,22.30
2022-08-26T18:14:25.949Z,22.20
2022-08-26T18:19:31.375Z,22.20
2022-08-26T18:24:37.073Z,22.20
2022-08-26T18:29:45.242Z,22.20
2022-08-26T18:34:49.541Z,22.10
2022-08-26T18:39:54.631Z,22.10
2022-08-26T18:44:58.397Z,22.10
2022-08-26T18:50:03.259Z,22.10
2022-08-26T18:55:11.584Z,22.00
2022-08-26T19:00:15.956Z,22.00
2022-08-26T19:05:19.883Z,22.00
2022-08-26T19:10:25.708Z,21.90
2022-08-26T19:15:29.617Z,21.90
2022-08-26T19:20:33.594Z,21.90
2022-08-26T19:25:42.568Z,21.90
2022-08-26T19:30:51.326Z,21.80
2022-08-26T19:35:57.124Z,21.80
2022-08-26T19:41:02.325Z,21.80
2022-08-26T19:46:11.132Z,21.80
2022-08-26T19:51:15.710Z,21.80
2022-08-26T19:56:21.897Z,21.70
2022-08-26T20:01:26.185Z,21.70
2022-08-26T20:06:29.953Z,21.70
2022-08-26T20:11:35.010Z,21.70
2022-08-26T20:16:38.908Z,21.60
2022-08-26T20:21:43.016Z,21.60
2022-08-26T20:26:48.881Z,21.60
2022-08-26T20:31:54.641Z,21.60
2022-08-26T20:36:59.373Z,21.60
2022-08-26T20:42:06.617Z,21.60
2022-08-26T20:47:24.472Z,21.50
2022-08-26T20:52:28.106Z,21.50
2022-08-26T20:57:33.735Z,21.40
2022-08-26T21:02:37.553Z,21.40
2022-08-26T21:07:41.281Z,21.40
2022-08-26T21:12:46.297Z,21.40
2022-08-26T21:17:49.984Z,21.30
2022-08-26T21:22:53.898Z,21.20
2022-08-26T21:27:58.943Z,21.20
2022-08-26T21:33:02.669Z,21.10
2022-08-26T21:38:06.414Z,21.10
2022-08-26T21:43:13.132Z,21.00
2022-08-26T21:48:32.214Z,21.00
2022-08-26T21:53:38.338Z,20.90
2022-08-26T21:58:44.122Z,20.80
2022-08-26T22:03:48.079Z,20.80
2022-08-26T22:08:52.189Z,20.70
2022-08-26T22:13:57.978Z,20.60
2022-08-26T22:19:01.704Z,20.60
2022-08-26T22:24:07.114Z,20.50
2022-08-26T22:29:12.625Z,20.40
2022-08-26T22:34:19.562Z,20.40
2022-08-26T22:39:26.016Z,20.30
2022-08-26T22:44:32.783Z,20.30
2022-08-26T22:49:36.263Z,20.20
2022-08-26T22:54:39.845Z,20.20
2022-08-26T22:59:45.657Z,20.10
2022-08-26T23:04:50.001Z,20.10
2022-08-26T23:09:53.700Z,20.00
2022-08-26T23:14:58.784Z,20.00
2022-08-26T23:20:02.588Z,19.90
2022-08-26T23:25:08.229Z,19.90
2022-08-26T23:30:17.988Z,19.80
2022-08-26T23:35:22.274Z,19.80
2022-08-26T23:40:28.678Z,19.80
2022-08-26T23:45:34.592Z,19.70
2022-08-26T23:50:55.806Z,19.70
2022-08-26T23:55:59.456Z,19.60
